Time;durP1;ratioP1;P1;durP2;ratioP2;P2;SDS_P1;SDS_P2;PMS_P1;PMS_P2;Temp;Humidity;BMP_temperature;BMP_pressure;BME280_temperature;BME280_humidity;BME280_pressure;Samples;Min_cycle;Max_cycle;Signal;HPM_P1;HPM_P2
2022/03/22 00:02:18;;;;;;;56.03;38.45;;;6.30;99.90;;;;;;5045998;28;20127;-50
2022/03/22 00:04:44;;;;;;;51.65;37.53;;;6.30;99.90;;;;;;5025914;28;20484;-47
2022/03/22 00:07:10;;;;;;;53.95;39.50;;;6.30;99.90;;;;;;5042607;28;20048;-53
2022/03/22 00:09:37;;;;;;;50.55;38.78;;;6.30;99.90;;;;;;5042973;28;20053;-50
2022/03/22 00:12:03;;;;;;;50.40;38.13;;;6.30;99.90;;;;;;5042565;28;20136;-49
2022/03/22 00:14:29;;;;;;;51.80;37.30;;;6.30;99.90;;;;;;5024690;28;20098;-49
2022/03/22 00:16:55;;;;;;;53.55;39.17;;;6.30;99.90;;;;;;5040504;28;20120;-47
2022/03/22 00:19:21;;;;;;;53.47;40.17;;;6.30;99.90;;;;;;5041914;28;21405;-47
2022/03/22 00:21:47;;;;;;;48.35;38.03;;;6.30;99.90;;;;;;5041529;28;20412;-48
2022/03/22 00:24:13;;;;;;;53.00;37.90;;;6.30;99.90;;;;;;5040141;28;20057;-49
2022/03/22 00:26:39;;;;;;;54.03;39.17;;;6.30;99.90;;;;;;5042021;28;20093;-50
2022/03/22 00:29:05;;;;;;;49.65;38.13;;;6.30;99.90;;;;;;5041792;28;20388;-51
2022/03/22 00:31:31;;;;;;;51.70;37.22;;;6.30;99.90;;;;;;5011212;28;20212;-48
2022/03/22 00:33:57;;;;;;;51.13;37.70;;;6.30;99.90;;;;;;5041433;28;20049;-49
2022/03/22 00:36:31;;;;;;;56.45;40.80;;;6.30;99.90;;;;;;5040880;28;20476;-46
2022/03/22 00:38:57;;;;;;;47.08;38.38;;;6.20;99.90;;;;;;5041026;28;20041;-47
2022/03/22 00:41:22;;;;;;;49.10;37.17;;;6.20;99.90;;;;;;5041968;28;20617;-49
2022/03/22 00:43:48;;;;;;;56.15;39.70;;;6.20;99.90;;;;;;5040879;28;20550;-48
2022/03/22 00:46:14;;;;;;;47.80;35.95;;;6.10;99.90;;;;;;5040705;28;20077;-48
2022/03/22 00:48:40;;;;;;;53.50;38.72;;;6.10;99.90;;;;;;5039020;28;20048;-49
2022/03/22 00:51:06;;;;;;;46.85;35.90;;;6.10;99.90;;;;;;5041057;28;20156;-49
2022/03/22 00:53:32;;;;;;;55.72;39.58;;;6.00;99.90;;;;;;5041381;28;20140;-50
2022/03/22 00:56:01;;;;;;;55.78;40.13;;;6.00;99.90;;;;;;5052811;28;20052;-52
2022/03/22 00:58:27;;;;;;;54.95;39.10;;;6.00;99.90;;;;;;5060294;28;20558;-49
2022/03/22 01:00:52;;;;;;;54.38;40.28;;;6.00;99.90;;;;;;5052415;28;20068;-48
2022/03/22 01:03:18;;;;;;;53.17;39.70;;;6.00;99.90;;;;;;5032786;28;20491;-52
2022/03/22 01:05:44;;;;;;;54.15;38.97;;;6.10;99.90;;;;;;5052509;28;20063;-47
2022/03/22 01:08:13;;;;;;;59.40;40.88;;;6.10;99.90;;;;;;5048825;28;20543;-49
2022/03/22 01:10:43;;;;;;;54.45;41.13;;;6.10;99.90;;;;;;5052497;28;20180;-49
2022/03/22 01:13:10;;;;;;;51.60;39.38;;;6.10;99.90;;;;;;5059493;28;20381;-50
2022/03/22 01:15:39;;;;;;;51.42;38.75;;;6.10;99.90;;;;;;5050554;28;20758;-49
2022/03/22 01:18:09;;;;;;;53.85;40.67;;;6.10;99.90;;;;;;5033369;28;20055;-50
2022/03/22 01:20:38;;;;;;;51.13;38.92;;;6.10;99.90;;;;;;5049004;28;20390;-50
2022/03/22 01:23:05;;;;;;;59.30;43.13;;;6.10;99.90;;;;;;5055051;28;20068;-50
2022/03/22 01:25:34;;;;;;;55.70;41.72;;;6.10;99.90;;;;;;5056306;28;20040;-48
2022/03/22 01:28:03;;;;;;;57.63;42.00;;;6.10;99.90;;;;;;5051549;28;20047;-49
2022/03/22 01:30:30;;;;;;;54.70;40.60;;;6.10;99.90;;;;;;5030294;28;20507;-48
2022/03/22 01:32:56;;;;;;;55.13;40.13;;;6.10;99.90;;;;;;5045693;28;20049;-52
2022/03/22 01:35:24;;;;;;;54.28;41.55;;;6.10;99.90;;;;;;5038868;28;20056;-48
2022/03/22 01:37:52;;;;;;;55.42;42.22;;;6.10;99.90;;;;;;5054723;28;20061;-50
2022/03/22 01:40:19;;;;;;;53.17;40.20;;;6.10;99.90;;;;;;5047623;28;20060;-48
2022/03/22 01:42:45;;;;;;;62.90;42.58;;;6.20;99.90;;;;;;5054181;28;20091;-50
2022/03/22 01:45:12;;;;;;;57.97;41.65;;;6.20;99.90;;;;;;5030301;28;20135;-50
2022/03/22 01:47:40;;;;;;;57.45;43.05;;;6.20;99.90;;;;;;5057786;28;20143;-48
2022/03/22 01:50:12;;;;;;;57.53;41.70;;;6.20;99.90;;;;;;5050210;28;20040;-47
2022/03/22 01:52:40;;;;;;;60.08;43.55;;;6.20;99.90;;;;;;5034768;28;20060;-48
2022/03/22 01:55:08;;;;;;;59.60;42.03;;;6.10;99.90;;;;;;5043430;28;20049;-50
2022/03/22 01:57:34;;;;;;;56.45;41.50;;;6.10;99.90;;;;;;5039927;28;20128;-49
2022/03/22 02:00:02;;;;;;;54.63;40.25;;;6.10;99.90;;;;;;5039714;28;20489;-49
2022/03/22 02:08:00;;;;;;;56.95;40.63;;;6.20;99.90;;;;;;5039860;28;20523;-49
2022/03/22 02:10:26;;;;;;;55.40;39.75;;;6.20;99.90;;;;;;5036791;28;20111;-46
2022/03/22 02:12:52;;;;;;;54.40;40.80;;;6.20;99.90;;;;;;5046323;28;20131;-51
2022/03/22 02:15:19;;;;;;;54.65;40.90;;;6.20;99.90;;;;;;5040126;28;20469;-52
2022/03/22 02:17:45;;;;;;;53.58;40.97;;;6.20;99.90;;;;;;5039798;28;20441;-50
2022/03/22 02:20:16;;;;;;;55.47;40.92;;;6.20;99.90;;;;;;5022406;28;20044;-49
2022/03/22 02:22:54;;;;;;;54.42;41.35;;;6.20;99.90;;;;;;5041225;28;20055;-53
2022/03/22 02:25:20;;;;;;;55.75;41.83;;;6.20;99.90;;;;;;5035062;28;20131;-50
2022/03/22 02:27:48;;;;;;;58.75;41.03;;;6.20;99.90;;;;;;5040703;28;20055;-50
2022/03/22 02:30:15;;;;;;;56.05;40.35;;;6.10;99.90;;;;;;5025477;28;20542;-51
2022/03/22 02:32:49;;;;;;;56.22;41.08;;;6.00;99.90;;;;;;5036252;28;20826;-50
2022/03/22 02:35:15;;;;;;;56.03;40.88;;;6.00;99.90;;;;;;5039170;28;20091;-50
2022/03/22 02:37:41;;;;;;;57.75;41.85;;;6.00;99.90;;;;;;5040373;28;20132;-47
2022/03/22 02:40:08;;;;;;;55.13;42.72;;;6.00;99.90;;;;;;5039994;28;20049;-49
2022/03/22 02:42:33;;;;;;;57.88;42.78;;;6.00;99.90;;;;;;5040354;28;20061;-48
2022/03/22 02:44:59;;;;;;;57.42;41.28;;;6.00;99.90;;;;;;5039950;28;20134;-48
2022/03/22 02:47:25;;;;;;;62.33;41.42;;;6.00;99.90;;;;;;5021303;28;20048;-50
2022/03/22 02:49:51;;;;;;;57.20;40.97;;;6.00;99.90;;;;;;5039563;28;20043;-45
2022/03/22 02:52:17;;;;;;;54.67;39.97;;;6.00;99.90;;;;;;5022006;28;20053;-49
2022/03/22 02:54:42;;;;;;;58.13;43.40;;;5.90;99.90;;;;;;5040751;28;20491;-48
2022/03/22 02:57:08;;;;;;;54.50;40.88;;;5.90;99.90;;;;;;5043037;28;20049;-48
2022/03/22 02:59:34;;;;;;;51.33;39.22;;;5.90;99.90;;;;;;5042831;28;20052;-49
2022/03/22 03:02:01;;;;;;;54.42;40.88;;;5.80;99.90;;;;;;5030908;28;20484;-48
2022/03/22 03:04:26;;;;;;;54.88;40.65;;;5.70;99.90;;;;;;5036591;28;20103;-48
2022/03/22 03:06:52;;;;;;;51.92;38.53;;;5.70;99.90;;;;;;5029448;28;20606;-46
2022/03/22 03:09:18;;;;;;;48.45;34.75;;;5.50;99.90;;;;;;5032521;28;20097;-50
2022/03/22 03:11:44;;;;;;;50.88;37.45;;;5.40;99.90;;;;;;5035655;28;20057;-51
2022/03/22 03:16:53;;;;;;;47.75;35.13;;;5.20;99.90;;;;;;5042872;28;20068;-49
2022/03/22 03:19:19;;;;;;;46.40;35.35;;;5.20;99.90;;;;;;5043046;28;20057;-51
2022/03/22 03:21:45;;;;;;;53.33;38.05;;;5.10;99.90;;;;;;5033603;28;20076;-50
2022/03/22 03:24:11;;;;;;;52.72;39.38;;;5.10;99.90;;;;;;5019002;28;20089;-49
2022/03/22 03:26:37;;;;;;;50.97;37.75;;;5.00;99.90;;;;;;5037027;28;20106;-51
2022/03/22 03:29:02;;;;;;;53.20;37.08;;;5.00;99.90;;;;;;5048221;28;20557;-50
2022/03/22 03:31:28;;;;;;;48.22;35.45;;;5.00;99.90;;;;;;5043674;28;20388;-50
2022/03/22 03:33:55;;;;;;;53.78;38.95;;;4.90;99.90;;;;;;5026994;28;20049;-48
2022/03/22 03:36:21;;;;;;;50.33;36.20;;;4.90;99.90;;;;;;5043018;28;20051;-49
2022/03/22 03:38:46;;;;;;;53.45;40.40;;;4.80;99.90;;;;;;5025009;28;20061;-51
2022/03/22 03:43:57;;;;;;;48.80;37.15;;;4.80;99.90;;;;;;5043344;28;20060;-50
2022/03/22 03:49:08;;;;;;;50.33;36.53;;;4.70;99.90;;;;;;5043230;28;20048;-49
2022/03/22 03:51:35;;;;;;;56.67;38.97;;;4.70;99.90;;;;;;5034365;28;20057;-44
2022/03/22 03:54:03;;;;;;;54.70;39.35;;;4.70;99.90;;;;;;5030527;28;20128;-48
2022/03/22 03:56:29;;;;;;;52.97;41.25;;;4.70;99.90;;;;;;5049408;28;20060;-48
2022/03/22 03:58:57;;;;;;;60.63;41.35;;;4.70;99.90;;;;;;5049748;28;20427;-48
2022/03/22 04:01:25;;;;;;;60.10;42.25;;;4.70;99.90;;;;;;5056890;28;20052;-48
2022/03/22 04:03:51;;;;;;;63.22;44.47;;;4.80;99.90;;;;;;5057228;28;20053;-49
2022/03/22 04:06:16;;;;;;;61.17;42.08;;;4.80;99.90;;;;;;5050272;28;20182;-49
2022/03/22 04:08:42;;;;;;;61.20;43.53;;;4.80;99.90;;;;;;5050490;28;20044;-48
2022/03/22 04:11:08;;;;;;;64.22;42.63;;;4.80;99.90;;;;;;5051734;28;20056;-50
2022/03/22 04:13:35;;;;;;;58.92;44.13;;;4.80;99.90;;;;;;5060567;28;20093;-49
2022/03/22 04:16:01;;;;;;;56.20;42.08;;;4.90;99.90;;;;;;5062863;28;20448;-47
2022/03/22 04:18:27;;;;;;;56.78;43.60;;;4.90;99.90;;;;;;5051110;28;20123;-49
2022/03/22 04:20:53;;;;;;;63.20;43.38;;;4.90;99.90;;;;;;5048779;28;20064;-49
2022/03/22 04:23:18;;;;;;;59.00;41.63;;;4.90;99.90;;;;;;5059667;28;20033;-48
2022/03/22 04:25:44;;;;;;;59.08;42.83;;;4.90;99.90;;;;;;5055768;28;20055;-48
2022/03/22 04:33:39;;;;;;;46.67;35.97;;;4.80;99.90;;;;;;5050692;28;20496;-49
2022/03/22 04:36:05;;;;;;;57.30;41.22;;;4.70;99.90;;;;;;5055157;28;20044;-50
2022/03/22 04:38:30;;;;;;;54.55;39.83;;;4.60;99.90;;;;;;5056428;28;20057;-51
2022/03/22 04:40:57;;;;;;;55.10;41.53;;;4.60;99.90;;;;;;5057025;28;20102;-47
2022/03/22 04:43:23;;;;;;;64.55;44.05;;;4.60;99.90;;;;;;5062447;28;20085;-49
2022/03/22 04:45:49;;;;;;;60.25;44.30;;;4.60;99.90;;;;;;5042393;28;20160;-49
2022/03/22 04:48:14;;;;;;;59.05;41.60;;;4.60;99.90;;;;;;5061999;28;20036;-48
2022/03/22 04:50:40;;;;;;;58.55;44.03;;;4.70;99.90;;;;;;5061081;28;20048;-49
2022/03/22 04:58:35;;;;;;;48.33;34.92;;;4.60;99.90;;;;;;5047752;28;20056;-52
2022/03/22 05:01:01;;;;;;;44.15;34.00;;;4.50;99.90;;;;;;5049893;28;20048;-52
2022/03/22 05:03:26;;;;;;;47.85;33.85;;;4.40;99.90;;;;;;5060498;28;20581;-47
2022/03/22 05:08:36;;;;;;;43.10;33.30;;;4.20;99.90;;;;;;5036312;28;20118;-48
2022/03/22 05:11:02;;;;;;;39.33;30.92;;;4.20;99.90;;;;;;5055429;28;20056;-48
2022/03/22 05:13:28;;;;;;;52.88;37.88;;;4.20;99.90;;;;;;5021248;28;20138;-47
2022/03/22 05:15:54;;;;;;;55.53;38.28;;;4.10;99.90;;;;;;5061152;28;20163;-49
2022/03/22 05:18:20;;;;;;;56.35;40.22;;;4.10;99.90;;;;;;5058162;28;20486;-49
2022/03/22 05:20:46;;;;;;;56.67;41.35;;;4.20;99.90;;;;;;5047496;28;20083;-51
2022/03/22 05:23:12;;;;;;;61.47;44.15;;;4.20;99.90;;;;;;5061498;28;20707;-48
2022/03/22 05:25:38;;;;;;;60.38;43.70;;;4.20;99.90;;;;;;5041995;28;20087;-46
2022/03/22 05:28:06;;;;;;;54.25;39.70;;;4.20;99.90;;;;;;5053573;28;20044;-49
2022/03/22 05:30:32;;;;;;;56.45;41.03;;;4.20;99.90;;;;;;5038590;28;20048;-48
2022/03/22 05:32:58;;;;;;;50.75;37.88;;;4.20;99.90;;;;;;5047631;28;20044;-48
2022/03/22 05:35:24;;;;;;;50.63;39.30;;;4.20;99.90;;;;;;5057856;28;20463;-48
2022/03/22 05:37:51;;;;;;;52.78;39.80;;;4.20;99.90;;;;;;5060541;28;20047;-48
2022/03/22 05:40:17;;;;;;;55.72;39.35;;;4.20;99.90;;;;;;5053319;28;20101;-49
2022/03/22 05:42:43;;;;;;;59.85;40.45;;;4.10;99.90;;;;;;5049603;28;20286;-48
2022/03/22 05:45:11;;;;;;;57.67;39.92;;;4.10;99.90;;;;;;5048566;28;20448;-49
2022/03/22 05:47:38;;;;;;;67.60;40.92;;;4.10;99.90;;;;;;5051675;28;20044;-47
2022/03/22 05:50:05;;;;;;;61.22;42.60;;;4.10;99.90;;;;;;5061650;28;20052;-49
2022/03/22 05:52:32;;;;;;;60.88;43.20;;;4.20;99.90;;;;;;5041420;28;20147;-50
2022/03/22 05:54:57;;;;;;;59.20;43.38;;;4.20;99.90;;;;;;5047245;28;20064;-49
2022/03/22 05:57:23;;;;;;;62.45;44.33;;;4.20;99.90;;;;;;5045234;28;20091;-48
2022/03/22 05:59:49;;;;;;;64.68;43.22;;;4.30;99.90;;;;;;5046864;28;20097;-48
2022/03/22 06:02:15;;;;;;;59.28;42.47;;;4.30;99.90;;;;;;5049804;28;20048;-49
2022/03/22 06:04:41;;;;;;;66.80;43.65;;;4.30;99.90;;;;;;5044343;28;20472;-49
2022/03/22 06:07:07;;;;;;;58.78;42.15;;;4.40;99.90;;;;;;5039773;28;20053;-49
2022/03/22 06:09:33;;;;;;;61.75;43.40;;;4.50;99.90;;;;;;5045233;28;20051;-50
2022/03/22 06:11:58;;;;;;;57.35;42.08;;;4.60;99.90;;;;;;5039114;28;20075;-51
2022/03/22 06:14:24;;;;;;;58.83;42.88;;;4.70;99.90;;;;;;5036766;28;20492;-44
2022/03/22 06:16:50;;;;;;;57.90;42.67;;;4.80;99.90;;;;;;5049690;28;20049;-48
2022/03/22 06:19:16;;;;;;;58.47;43.58;;;4.90;99.90;;;;;;5060650;28;20052;-49
2022/03/22 06:21:41;;;;;;;64.18;43.75;;;5.20;99.90;;;;;;5060841;28;20181;-48
2022/03/22 06:24:07;;;;;;;62.42;44.50;;;5.40;99.90;;;;;;5060859;28;20099;-47
2022/03/22 06:26:33;;;;;;;57.60;42.80;;;5.60;99.90;;;;;;5060401;28;20048;-49
2022/03/22 06:29:00;;;;;;;57.00;42.00;;;5.90;99.90;;;;;;5062236;28;20053;-51
2022/03/22 06:31:27;;;;;;;59.30;44.67;;;6.10;99.90;;;;;;5065695;28;20491;-46
2022/03/22 06:33:53;;;;;;;52.88;42.72;;;6.40;99.90;;;;;;5064582;28;20102;-51
2022/03/22 06:36:19;;;;;;;60.30;43.75;;;6.70;99.90;;;;;;5063160;28;20045;-52
2022/03/22 06:38:45;;;;;;;49.13;40.88;;;7.00;99.90;;;;;;5064446;28;20051;-51
2022/03/22 06:41:10;;;;;;;50.67;39.47;;;7.40;99.90;;;;;;5065228;28;20055;-49
2022/03/22 06:43:36;;;;;;;43.00;37.58;;;7.80;99.90;;;;;;5026663;28;20068;-49
2022/03/22 06:46:07;;;;;;;45.47;37.58;;;8.30;99.90;;;;;;5041757;28;20051;-50
2022/03/22 06:48:33;;;;;;;48.47;39.45;;;8.60;99.90;;;;;;5052475;28;20673;-49
2022/03/22 06:50:59;;;;;;;51.67;40.72;;;8.70;99.90;;;;;;5043140;28;20049;-48
2022/03/22 06:53:25;;;;;;;51.97;40.65;;;8.80;99.90;;;;;;5050426;28;20048;-51
2022/03/22 06:55:51;;;;;;;57.50;42.65;;;8.80;99.90;;;;;;5052313;28;20061;-52
2022/03/22 06:58:21;;;;;;;54.80;41.97;;;8.80;99.90;;;;;;5052397;28;20048;-52
2022/03/22 07:00:48;;;;;;;49.78;41.92;;;8.80;99.90;;;;;;5057917;28;20060;-51
2022/03/22 07:03:14;;;;;;;52.92;42.28;;;8.70;99.90;;;;;;5062202;28;20044;-53
2022/03/22 07:05:42;;;;;;;49.17;41.10;;;8.70;99.90;;;;;;5062713;28;20049;-53
2022/03/22 07:08:08;;;;;;;48.03;41.28;;;8.70;99.90;;;;;;5044075;28;20048;-50
2022/03/22 07:10:34;;;;;;;46.42;39.20;;;8.80;99.90;;;;;;5057925;28;20049;-51
2022/03/22 07:13:05;;;;;;;50.42;41.00;;;8.90;99.90;;;;;;5058599;28;20134;-51
2022/03/22 07:15:37;;;;;;;55.33;42.45;;;9.00;99.90;;;;;;5040497;28;20056;-50
2022/03/22 07:18:05;;;;;;;52.33;42.97;;;9.10;99.90;;;;;;5050187;28;20056;-49
2022/03/22 07:20:32;;;;;;;54.08;44.28;;;9.10;99.90;;;;;;5033445;28;20053;-50
2022/03/22 07:22:58;;;;;;;50.10;41.90;;;9.20;99.90;;;;;;5059516;28;20045;-48
2022/03/22 07:25:24;;;;;;;55.63;43.83;;;9.20;99.90;;;;;;5036570;28;20056;-50
2022/03/22 07:27:51;;;;;;;53.58;42.58;;;9.30;99.90;;;;;;5038160;28;20099;-51
2022/03/22 07:30:17;;;;;;;49.97;42.35;;;9.40;99.90;;;;;;5057093;28;20048;-49
2022/03/22 07:32:45;;;;;;;50.85;40.03;;;9.50;99.90;;;;;;5057582;28;20411;-51
2022/03/22 07:35:12;;;;;;;49.50;41.55;;;9.50;99.90;;;;;;5057015;28;20040;-49
2022/03/22 07:37:39;;;;;;;53.80;41.97;;;9.70;99.90;;;;;;5059253;28;20131;-51
2022/03/22 07:40:08;;;;;;;49.17;41.45;;;9.80;99.90;;;;;;5021145;28;20521;-50
2022/03/22 07:42:34;;;;;;;50.25;40.72;;;9.80;99.90;;;;;;5056845;28;20052;-49
2022/03/22 07:45:03;;;;;;;51.13;41.53;;;9.90;99.90;;;;;;5055105;28;20151;-52
2022/03/22 07:47:29;;;;;;;47.58;41.30;;;10.00;99.90;;;;;;5054258;28;20108;-50
2022/03/22 07:53:05;;;;;;;48.40;41.25;;;10.20;99.90;;;;;;5056848;28;20562;-51
2022/03/22 07:55:34;;;;;;;45.58;39.97;;;10.30;99.90;;;;;;5055983;28;20415;-52
2022/03/22 07:58:00;;;;;;;51.35;41.20;;;10.40;99.90;;;;;;5054153;28;20063;-49
2022/03/22 08:00:27;;;;;;;47.47;42.20;;;10.40;99.90;;;;;;5035950;28;20061;-50
2022/03/22 08:02:54;;;;;;;49.78;41.25;;;10.60;99.90;;;;;;5059168;28;20344;-52
2022/03/22 08:05:20;;;;;;;50.38;41.67;;;10.70;99.90;;;;;;5060013;28;20043;-52
2022/03/22 08:07:46;;;;;;;51.00;41.38;;;10.80;99.90;;;;;;5052832;28;20041;-52
2022/03/22 08:10:13;;;;;;;50.15;41.15;;;10.90;99.90;;;;;;5055965;28;20499;-48
2022/03/22 08:12:40;;;;;;;47.33;42.05;;;11.00;99.90;;;;;;5041654;28;20102;-46
2022/03/22 08:15:07;;;;;;;49.53;40.50;;;11.10;99.90;;;;;;5062903;28;20109;-53
2022/03/22 08:17:33;;;;;;;47.65;39.22;;;11.40;99.90;;;;;;5062633;28;20055;-52
2022/03/22 08:19:58;;;;;;;47.65;39.00;;;11.60;99.90;;;;;;5038332;28;20052;-54
2022/03/22 08:22:24;;;;;;;45.58;39.03;;;11.80;99.90;;;;;;5051991;28;20507;-53
2022/03/22 08:24:52;;;;;;;46.70;40.72;;;12.00;99.90;;;;;;5043391;28;20129;-52
2022/03/22 08:27:19;;;;;;;45.47;40.58;;;12.00;99.90;;;;;;5062109;28;20047;-53
2022/03/22 08:29:51;;;;;;;45.15;38.55;;;12.10;99.90;;;;;;5056951;28;20055;-54
2022/03/22 08:32:17;;;;;;;45.30;38.47;;;12.20;99.90;;;;;;5054009;28;20058;-53
2022/03/22 08:34:42;;;;;;;45.55;40.33;;;12.10;99.90;;;;;;5034666;28;20088;-51
2022/03/22 08:37:08;;;;;;;45.53;38.85;;;12.20;99.90;;;;;;5058896;28;20483;-51
2022/03/22 08:39:34;;;;;;;44.03;39.25;;;12.10;99.90;;;;;;5053928;28;20636;-52
2022/03/22 08:42:00;;;;;;;44.45;38.10;;;12.10;99.90;;;;;;5062177;28;20067;-54
2022/03/22 08:44:26;;;;;;;47.65;41.47;;;12.10;99.90;;;;;;5060700;28;20410;-51
2022/03/22 08:46:52;;;;;;;45.97;40.15;;;12.10;99.90;;;;;;5040924;28;20470;-53
2022/03/22 08:49:18;;;;;;;49.33;41.60;;;12.10;99.90;;;;;;5056090;28;20080;-51
2022/03/22 08:51:44;;;;;;;46.83;40.17;;;12.20;99.90;;;;;;5050691;28;20090;-53
2022/03/22 08:54:16;;;;;;;48.22;38.90;;;12.20;99.90;;;;;;5050286;28;20120;-53
2022/03/22 08:56:45;;;;;;;45.17;39.13;;;12.30;99.90;;;;;;5051526;28;20060;-53
2022/03/22 08:59:16;;;;;;;44.30;39.17;;;12.40;99.90;;;;;;5067902;28;20048;-51
2022/03/22 09:01:42;;;;;;;41.58;37.10;;;12.50;99.90;;;;;;5057581;28;20041;-54
2022/03/22 09:06:52;;;;;;;44.38;37.35;;;12.90;99.90;;;;;;5048419;28;20124;-53
2022/03/22 09:09:18;;;;;;;44.85;37.40;;;13.10;99.90;;;;;;5058948;28;20044;-54
2022/03/22 09:11:43;;;;;;;44.70;38.35;;;13.30;99.90;;;;;;5061983;28;20084;-54
2022/03/22 09:14:09;;;;;;;42.92;37.25;;;13.50;99.90;;;;;;5058061;28;20040;-54
2022/03/22 09:16:36;;;;;;;46.33;38.42;;;13.60;99.90;;;;;;5050254;28;20578;-54
2022/03/22 09:19:01;;;;;;;41.72;36.97;;;13.70;99.90;;;;;;5035607;28;20049;-54
2022/03/22 09:21:27;;;;;;;47.10;38.08;;;13.70;99.90;;;;;;5053615;28;20060;-52
2022/03/22 09:23:54;;;;;;;47.40;38.42;;;13.80;99.90;;;;;;5058768;28;20076;-54
2022/03/22 09:26:20;;;;;;;42.58;37.75;;;13.90;99.90;;;;;;5059883;28;20499;-53
2022/03/22 09:28:46;;;;;;;45.15;39.17;;;14.00;99.90;;;;;;5056069;28;20055;-55
2022/03/22 09:31:12;;;;;;;44.78;37.78;;;13.90;99.90;;;;;;5044410;28;20087;-55
2022/03/22 09:33:38;;;;;;;42.75;36.72;;;14.00;99.90;;;;;;5052299;28;20456;-50
2022/03/22 09:36:04;;;;;;;44.03;35.58;;;14.10;99.90;;;;;;5054177;28;20109;-53
2022/03/22 09:38:31;;;;;;;40.88;36.05;;;14.20;99.90;;;;;;5050865;28;20047;-45
2022/03/22 09:40:58;;;;;;;41.70;37.28;;;14.20;99.90;;;;;;5061133;28;20049;-54
2022/03/22 09:43:23;;;;;;;41.20;35.50;;;14.30;99.90;;;;;;5061539;28;20095;-55
2022/03/22 09:45:57;;;;;;;45.45;36.67;;;14.30;99.90;;;;;;5064293;28;21728;-54
2022/03/22 09:48:36;;;;;;;40.33;36.03;;;14.40;99.90;;;;;;5057396;28;20626;-54
2022/03/22 09:53:47;;;;;;;39.78;35.00;;;14.60;99.90;;;;;;5047622;28;20086;-54
2022/03/22 09:56:13;;;;;;;43.15;36.28;;;14.60;99.90;;;;;;5057946;28;20123;-45
2022/03/22 09:58:39;;;;;;;38.72;34.40;;;14.70;99.90;;;;;;5059860;28;20056;-54
2022/03/22 10:01:05;;;;;;;39.85;35.55;;;14.90;99.90;;;;;;5042122;28;20060;-54
2022/03/22 10:03:30;;;;;;;44.15;36.70;;;15.00;99.90;;;;;;5046486;28;20471;-52
2022/03/22 10:06:01;;;;;;;40.13;33.90;;;15.10;99.90;;;;;;5050005;28;20051;-51
2022/03/22 10:08:27;;;;;;;39.03;34.78;;;15.20;99.90;;;;;;5059370;28;20061;-54
2022/03/22 10:11:03;;;;;;;38.80;34.63;;;15.30;99.90;;;;;;5058585;28;20506;-55
2022/03/22 10:13:33;;;;;;;44.05;34.53;;;15.40;99.90;;;;;;5038382;28;20135;-55
2022/03/22 10:16:04;;;;;;;37.72;32.88;;;15.40;99.90;;;;;;5057883;28;20049;-55
2022/03/22 10:18:35;;;;;;;37.50;33.40;;;15.50;99.90;;;;;;5055961;28;20174;-55
2022/03/22 10:21:05;;;;;;;38.08;32.67;;;15.60;99.90;;;;;;5033098;28;20102;-55
2022/03/22 10:23:32;;;;;;;34.13;29.27;;;15.70;99.90;;;;;;5037455;28;20060;-48
2022/03/22 10:26:06;;;;;;;36.15;30.60;;;15.70;99.90;;;;;;5041107;28;20056;-51
2022/03/22 10:28:34;;;;;;;35.72;29.65;;;15.80;99.90;;;;;;5045382;28;20055;-54
2022/03/22 10:31:02;;;;;;;34.17;29.13;;;15.80;99.90;;;;;;5055318;28;20487;-55
2022/03/22 10:33:31;;;;;;;34.53;30.20;;;15.90;99.90;;;;;;5062909;28;20044;-54
2022/03/22 10:35:57;;;;;;;37.75;30.92;;;16.00;99.90;;;;;;5034025;28;20056;-54
2022/03/22 10:38:23;;;;;;;34.05;30.45;;;16.10;99.90;;;;;;5039603;28;20116;-55
2022/03/22 10:40:49;;;;;;;34.63;30.67;;;16.20;99.90;;;;;;5057225;28;20471;-55
2022/03/22 10:43:22;;;;;;;35.30;31.50;;;16.20;99.90;;;;;;5052284;28;20054;-55
2022/03/22 10:46:04;;;;;;;37.40;31.25;;;16.30;99.90;;;;;;5056241;28;20041;-55
2022/03/22 10:48:33;;;;;;;33.83;30.15;;;16.40;99.90;;;;;;5062972;28;20048;-55
2022/03/22 10:51:01;;;;;;;33.03;28.92;;;16.40;99.90;;;;;;5059028;28;20128;-55
2022/03/22 10:53:32;;;;;;;36.92;30.65;;;16.50;99.90;;;;;;5055820;28;20060;-56
2022/03/22 10:55:59;;;;;;;36.63;30.88;;;16.60;99.90;;;;;;5053464;28;20804;-54
2022/03/22 10:58:27;;;;;;;32.17;28.55;;;16.60;99.90;;;;;;5057557;28;20126;-55
2022/03/22 11:00:55;;;;;;;35.50;30.73;;;16.70;99.90;;;;;;5038706;28;20442;-49
2022/03/22 11:03:22;;;;;;;36.00;32.10;;;16.80;99.90;;;;;;5049722;28;20051;-55
2022/03/22 11:05:54;;;;;;;33.13;29.63;;;16.80;99.90;;;;;;5049327;28;20048;-56
2022/03/22 11:08:23;;;;;;;41.27;30.90;;;16.90;99.90;;;;;;5054453;28;20051;-55
2022/03/22 11:10:50;;;;;;;34.00;28.25;;;17.00;99.90;;;;;;5047634;28;20379;-55
2022/03/22 11:13:16;;;;;;;31.88;28.15;;;17.10;99.90;;;;;;5059502;28;20640;-54
2022/03/22 11:15:48;;;;;;;36.38;27.17;;;17.10;99.90;;;;;;5035458;28;20131;-55
2022/03/22 11:18:15;;;;;;;34.33;28.67;;;17.10;99.90;;;;;;5059833;28;20507;-55
2022/03/22 11:20:56;;;;;;;31.88;28.48;;;17.20;99.90;;;;;;5059298;28;20526;-55
2022/03/22 11:23:27;;;;;;;32.33;27.63;;;17.30;99.90;;;;;;5056534;28;20131;-56
2022/03/22 11:25:53;;;;;;;35.97;27.98;;;17.30;99.90;;;;;;5062716;28;20093;-55
2022/03/22 11:28:22;;;;;;;29.63;26.45;;;17.30;99.90;;;;;;5063295;28;20356;-56
2022/03/22 11:30:51;;;;;;;31.90;25.33;;;17.40;99.90;;;;;;5056191;28;20044;-57
2022/03/22 11:36:17;;;;;;;29.20;25.50;;;17.50;99.90;;;;;;5047316;28;20087;-56
2022/03/22 11:38:50;;;;;;;32.22;26.83;;;17.60;99.90;;;;;;5060478;28;20445;-55
2022/03/22 11:44:39;;;;;;;31.05;27.70;;;17.70;99.90;;;;;;5056384;28;20052;-55
2022/03/22 11:47:16;;;;;;;32.80;27.58;;;17.70;99.90;;;;;;5050684;28;20110;-55
2022/03/22 11:49:55;;;;;;;32.63;28.65;;;17.80;99.90;;;;;;5049774;28;20044;-56
2022/03/22 11:52:44;;;;;;;31.90;28.50;;;17.80;99.90;;;;;;5058717;28;20060;-56
2022/03/22 11:55:19;;;;;;;35.10;27.77;;;17.90;99.90;;;;;;5051216;28;20397;-56
2022/03/22 11:58:08;;;;;;;29.27;26.13;;;17.90;99.90;;;;;;5044022;28;20466;-55
2022/03/22 12:00:51;;;;;;;30.73;27.30;;;18.00;99.90;;;;;;5050347;28;20047;-56
2022/03/22 12:03:19;;;;;;;37.35;28.65;;;18.00;99.90;;;;;;5065471;28;20515;-56
2022/03/22 12:05:45;;;;;;;28.42;25.15;;;18.00;99.90;;;;;;5063320;28;20064;-56
2022/03/22 12:08:14;;;;;;;28.17;24.63;;;18.10;99.90;;;;;;5061656;28;20057;-55
2022/03/22 12:10:44;;;;;;;28.67;23.77;;;18.10;99.90;;;;;;5050945;28;20114;-56
2022/03/22 12:13:10;;;;;;;28.58;24.92;;;18.10;99.90;;;;;;5052989;28;20044;-57
2022/03/22 12:15:36;;;;;;;26.73;23.83;;;18.10;99.90;;;;;;5043877;28;20106;-56
2022/03/22 12:18:03;;;;;;;28.60;25.17;;;18.10;99.90;;;;;;5063796;28;20040;-57
2022/03/22 12:20:29;;;;;;;31.63;26.33;;;18.20;99.90;;;;;;5063721;28;20135;-53
2022/03/22 12:22:59;;;;;;;29.83;24.63;;;18.20;99.90;;;;;;5056978;28;20860;-56
2022/03/22 12:25:28;;;;;;;27.58;24.63;;;18.20;99.90;;;;;;5048667;28;20087;-56
2022/03/22 12:27:57;;;;;;;30.10;26.90;;;18.20;99.90;;;;;;5058112;28;20423;-55
2022/03/22 12:30:28;;;;;;;30.40;25.10;;;18.20;99.90;;;;;;5054534;28;20044;-56
2022/03/22 12:32:56;;;;;;;29.17;22.98;;;18.20;99.90;;;;;;5052922;28;20045;-56
2022/03/22 12:35:23;;;;;;;28.92;21.98;;;18.20;99.70;;;;;;5052833;28;20095;-56
2022/03/22 12:37:51;;;;;;;30.05;23.55;;;18.20;99.90;;;;;;5052865;28;20055;-56
2022/03/22 12:40:18;;;;;;;25.55;21.65;;;18.30;99.90;;;;;;5053776;28;20044;-56
2022/03/22 12:42:45;;;;;;;28.95;25.65;;;18.30;99.90;;;;;;5047456;28;20053;-56
2022/03/22 12:45:14;;;;;;;29.48;23.70;;;18.40;99.90;;;;;;5048167;28;20053;-52
2022/03/22 12:47:41;;;;;;;29.42;23.60;;;18.40;99.90;;;;;;5054652;28;20057;-56
2022/03/22 12:50:12;;;;;;;25.80;23.05;;;18.50;99.90;;;;;;5049763;28;20090;-56
2022/03/22 12:52:38;;;;;;;24.45;21.85;;;18.50;99.90;;;;;;5054493;28;20076;-53
2022/03/22 12:55:05;;;;;;;27.65;23.52;;;18.50;99.90;;;;;;5049035;28;20144;-54
2022/03/22 12:57:31;;;;;;;24.65;22.00;;;18.60;99.90;;;;;;5044423;28;20049;-55
2022/03/22 12:59:57;;;;;;;28.42;23.27;;;18.60;99.90;;;;;;5037907;28;20056;-54
2022/03/22 13:02:24;;;;;;;27.60;24.10;;;18.60;99.90;;;;;;5052872;28;20128;-56
2022/03/22 13:04:52;;;;;;;29.55;24.92;;;18.60;99.90;;;;;;5051341;28;20394;-56
2022/03/22 13:07:25;;;;;;;25.35;22.17;;;18.50;99.90;;;;;;5052446;28;20044;-56
2022/03/22 13:12:38;;;;;;;28.48;23.05;;;18.60;99.90;;;;;;5054794;28;20051;-55
2022/03/22 13:15:17;;;;;;;28.55;23.73;;;18.60;99.60;;;;;;5059838;28;20048;-54
2022/03/22 13:17:45;;;;;;;26.65;21.77;;;18.60;99.10;;;;;;5042214;28;20415;-56
2022/03/22 13:20:27;;;;;;;29.20;23.33;;;18.60;99.60;;;;;;5037272;28;20052;-56